Time;durP1;ratioP1;P1;durP2;ratioP2;P2;SDS_P1;SDS_P2;PMS_P1;PMS_P2;Temp;Humidity;BMP_temperature;BMP_pressure;BME280_temperature;BME280_humidity;BME280_pressure;Samples;Min_cycle;Max_cycle;Signal;HPM_P1;HPM_P2
2021/10/31 00:01:15;;;;;;;;;;;;;;;9.39;56.08;94726.25;5003810;28;19929;-63
2021/10/31 00:03:40;;;;;;;;;;;;;;;10.00;54.42;94713.34;5001561;28;20576;-62
2021/10/31 00:06:05;;;;;;;;;;;;;;;10.17;53.92;94721.88;5000685;28;19918;-63
2021/10/31 00:08:31;;;;;;;;;;;;;;;10.27;53.47;94727.63;4994114;28;19925;-63
2021/10/31 00:10:57;;;;;;;;;;;;;;;9.72;55.81;94738.94;5003165;28;19921;-63
2021/10/31 00:13:23;;;;;;;;;;;;;;;8.82;58.68;94742.88;5003758;28;19922;-63
2021/10/31 00:15:48;;;;;;;;;;;;;;;8.36;60.68;94744.81;5003021;28;19960;-62
2021/10/31 00:18:13;;;;;;;;;;;;;;;9.49;56.20;94750.66;5002925;28;19918;-63
2021/10/31 00:20:39;;;;;;;;;;;;;;;9.76;55.90;94750.84;5003276;28;19925;-62
2021/10/31 00:23:04;;;;;;;;;;;;;;;10.19;54.31;94752.56;5002919;28;19941;-63
2021/10/31 00:25:29;;;;;;;;;;;;;;;10.43;53.41;94757.56;5001560;28;20272;-63
2021/10/31 00:27:54;;;;;;;;;;;;;;;10.51;53.29;94757.44;5003305;28;19918;-63
2021/10/31 00:30:20;;;;;;;;;;;;;;;9.82;55.34;94766.00;5002794;28;19941;-62
2021/10/31 00:32:45;;;;;;;;;;;;;;;10.01;54.98;94762.84;5003355;28;20342;-64
2021/10/31 00:35:10;;;;;;;;;;;;;;;10.25;54.44;94761.59;5002836;28;19926;-63
2021/10/31 00:37:35;;;;;;;;;;;;;;;10.03;54.67;94753.66;5002811;28;19913;-63
2021/10/31 00:40:01;;;;;;;;;;;;;;;9.98;55.09;94758.75;5003415;28;20008;-63
2021/10/31 00:42:26;;;;;;;;;;;;;;;9.90;55.99;94750.94;5003164;28;20294;-63
2021/10/31 00:44:51;;;;;;;;;;;;;;;9.81;55.68;94756.41;5001851;28;19924;-63
2021/10/31 00:47:16;;;;;;;;;;;;;;;9.12;57.92;94761.38;5003014;28;20044;-63
2021/10/31 00:49:42;;;;;;;;;;;;;;;9.88;55.63;94758.28;5002598;28;19939;-62
2021/10/31 00:52:07;;;;;;;;;;;;;;;10.26;54.47;94757.09;5001600;28;19952;-64
2021/10/31 00:54:33;;;;;;;;;;;;;;;9.81;56.18;94755.56;5001111;28;20732;-63
2021/10/31 00:56:59;;;;;;;;;;;;;;;10.02;54.58;94744.03;4995665;28;19967;-62
2021/10/31 00:59:24;;;;;;;;;;;;;;;10.21;54.44;94739.88;5002876;28;19922;-63
2021/10/31 01:01:51;;;;;;;;;;;;;;;10.65;53.49;94733.50;5003225;28;19917;-63
2021/10/31 01:04:20;;;;;;;;;;;;;;;10.60;53.24;94742.91;5004137;28;19926;-63
2021/10/31 01:07:03;;;;;;;;;;;;;;;10.54;53.51;94741.03;4998493;28;20302;-62
2021/10/31 01:09:47;;;;;;;;;;;;;;;9.34;56.81;94753.38;5001482;28;19933;-63
2021/10/31 01:12:51;;;;;;;;;;;;;;;9.40;57.11;94754.44;5003412;28;19996;-63
2021/10/31 01:15:21;;;;;;;;;;;;;;;10.01;55.67;94742.41;5019566;28;20452;-63
2021/10/31 01:17:47;;;;;;;;;;;;;;;10.43;54.04;94752.25;5000277;28;19940;-63
2021/10/31 01:20:32;;;;;;;;;;;;;;;10.46;53.91;94752.69;5005045;28;20381;-61
2021/10/31 01:23:16;;;;;;;;;;;;;;;10.02;55.37;94746.72;5003164;28;20530;-63
2021/10/31 01:26:00;;;;;;;;;;;;;;;9.97;55.89;94749.16;5003599;28;20471;-62
2021/10/31 01:28:25;;;;;;;;;;;;;;;9.52;56.64;94763.53;5003555;28;19910;-63
2021/10/31 01:30:56;;;;;;;;;;;;;;;10.02;55.16;94752.03;5003206;28;19939;-63
2021/10/31 01:33:37;;;;;;;;;;;;;;;9.71;57.16;94763.88;5003488;28;20383;-63
2021/10/31 01:36:05;;;;;;;;;;;;;;;10.05;56.29;94754.34;5003425;28;19976;-63
2021/10/31 01:38:36;;;;;;;;;;;;;;;9.88;56.73;94748.47;5003130;28;19972;-63
2021/10/31 01:41:03;;;;;;;;;;;;;;;9.43;58.29;94754.91;5002105;28;19924;-63
2021/10/31 01:43:30;;;;;;;;;;;;;;;10.05;56.28;94762.31;5001942;28;19930;-62
2021/10/31 01:46:04;;;;;;;;;;;;;;;9.83;56.75;94757.00;5003744;28;20370;-63
2021/10/31 01:48:48;;;;;;;;;;;;;;;9.80;57.14;94761.91;5003689;28;19924;-63
2021/10/31 01:51:16;;;;;;;;;;;;;;;9.95;56.22;94759.97;5002603;28;19934;-63
2021/10/31 01:53:53;;;;;;;;;;;;;;;9.58;57.63;94756.63;5001391;28;19997;-63
2021/10/31 01:56:19;;;;;;;;;;;;;;;9.74;57.52;94762.69;5002840;28;20390;-63
2021/10/31 01:58:46;;;;;;;;;;;;;;;9.46;58.33;94766.97;5003051;28;20002;-63
2021/10/31 02:01:11;;;;;;;;;;;;;;;9.54;57.47;94769.50;5002856;28;19996;-62
2021/10/31 02:03:37;;;;;;;;;;;;;;;9.88;55.90;94767.06;5000860;28;20359;-63
2021/10/31 02:06:02;;;;;;;;;;;;;;;10.30;55.47;94763.66;5000103;28;19925;-64
2021/10/31 02:08:28;;;;;;;;;;;;;;;10.23;55.71;94761.78;4992573;28;19924;-63
2021/10/31 02:10:53;;;;;;;;;;;;;;;9.51;58.01;94772.53;5002126;28;20195;-62
2021/10/31 02:13:19;;;;;;;;;;;;;;;8.91;60.04;94764.81;5002806;28;19921;-63
2021/10/31 02:15:46;;;;;;;;;;;;;;;9.43;58.65;94760.22;5000551;28;20390;-63
2021/10/31 02:18:12;;;;;;;;;;;;;;;8.73;60.38;94770.50;5002139;28;19921;-63
2021/10/31 02:20:39;;;;;;;;;;;;;;;8.82;60.52;94759.63;5002366;28;19924;-63
2021/10/31 02:23:04;;;;;;;;;;;;;;;9.74;57.50;94762.69;5001226;28;20398;-63
2021/10/31 02:25:29;;;;;;;;;;;;;;;9.97;56.70;94751.81;5001370;28;19921;-63
2021/10/31 02:27:55;;;;;;;;;;;;;;;10.46;55.15;94752.69;5002987;28;19925;-63
2021/10/31 02:30:20;;;;;;;;;;;;;;;9.95;56.11;94751.16;5005921;28;20366;-64
2021/10/31 02:32:46;;;;;;;;;;;;;;;9.45;57.59;94750.22;5007075;28;20218;-63
2021/10/31 02:35:12;;;;;;;;;;;;;;;9.55;57.72;94754.34;5005514;28;19929;-63
2021/10/31 02:37:37;;;;;;;;;;;;;;;9.93;56.88;94751.34;5006601;28;19925;-64
2021/10/31 02:40:03;;;;;;;;;;;;;;;10.47;54.66;94756.16;5006873;28;19913;-61
2021/10/31 02:42:28;;;;;;;;;;;;;;;10.61;54.51;94749.06;5005821;28;19929;-63
2021/10/31 02:44:54;;;;;;;;;;;;;;;9.92;56.49;94754.19;5004191;28;19944;-62
2021/10/31 02:47:24;;;;;;;;;;;;;;;10.34;55.30;94751.63;5006043;28;19921;-63
2021/10/31 02:49:50;;;;;;;;;;;;;;;10.07;56.32;94754.13;5004313;28;19917;-62
2021/10/31 02:52:16;;;;;;;;;;;;;;;10.36;55.17;94758.38;5001147;28;20449;-63
2021/10/31 02:54:41;;;;;;;;;;;;;;;10.66;54.24;94751.09;5004879;28;20106;-63
2021/10/31 02:57:10;;;;;;;;;;;;;;;10.68;54.39;94746.41;5006516;28;19920;-63
2021/10/31 02:59:42;;;;;;;;;;;;;;;10.46;54.68;94746.53;5004393;28;19971;-57
2021/10/31 03:02:07;;;;;;;;;;;;;;;10.65;54.20;94741.50;5005812;28;19918;-58
2021/10/31 03:04:33;;;;;;;;;;;;;;;10.66;53.96;94743.94;5004791;28;19924;-59
2021/10/31 03:06:58;;;;;;;;;;;;;;;10.93;53.34;94751.19;5004204;28;19991;-57
2021/10/31 03:09:23;;;;;;;;;;;;;;;10.85;53.54;94755.66;5005944;28;19961;-58
2021/10/31 03:11:48;;;;;;;;;;;;;;;10.77;53.95;94758.50;5005169;28;19967;-57
2021/10/31 03:14:14;;;;;;;;;;;;;;;10.87;53.71;94758.97;5005456;28;19948;-57
2021/10/31 03:16:39;;;;;;;;;;;;;;;10.89;53.48;94766.75;5005224;28;19929;-57
2021/10/31 03:19:04;;;;;;;;;;;;;;;9.75;56.76;94761.69;5004324;28;20390;-58
2021/10/31 03:21:29;;;;;;;;;;;;;;;10.74;53.99;94759.75;5004592;28;19917;-57
2021/10/31 03:23:55;;;;;;;;;;;;;;;10.29;55.79;94762.84;5003029;28;19924;-57
2021/10/31 03:26:20;;;;;;;;;;;;;;;9.48;57.46;94775.56;5004709;28;19917;-57
2021/10/31 03:28:46;;;;;;;;;;;;;;;10.43;54.67;94768.22;5004488;28;20551;-58
2021/10/31 03:31:11;;;;;;;;;;;;;;;10.65;54.35;94778.75;5004950;28;19928;-57
2021/10/31 03:33:36;;;;;;;;;;;;;;;10.70;54.32;94776.31;5004600;28;19918;-56
2021/10/31 03:36:02;;;;;;;;;;;;;;;9.79;56.18;94786.84;5003427;28;19922;-58
2021/10/31 03:38:28;;;;;;;;;;;;;;;9.38;58.36;94791.03;5003084;28;19923;-57
2021/10/31 03:40:53;;;;;;;;;;;;;;;10.06;56.03;94785.22;5004399;28;19926;-59
2021/10/31 03:43:20;;;;;;;;;;;;;;;10.57;54.48;94790.41;5004317;28;20310;-56
2021/10/31 03:45:45;;;;;;;;;;;;;;;10.60;54.12;94785.50;5004382;28;19924;-56
2021/10/31 03:48:10;;;;;;;;;;;;;;;10.05;54.83;94780.94;5003964;28;19917;-57
2021/10/31 03:50:36;;;;;;;;;;;;;;;10.25;55.16;94777.56;5004455;28;19932;-58
2021/10/31 03:53:01;;;;;;;;;;;;;;;10.01;55.53;94779.66;5003983;28;19927;-57
2021/10/31 03:55:26;;;;;;;;;;;;;;;9.77;56.84;94781.72;5004144;28;19922;-56
2021/10/31 03:57:52;;;;;;;;;;;;;;;10.52;54.36;94788.34;5004393;28;20310;-57
2021/10/31 04:00:17;;;;;;;;;;;;;;;9.61;56.79;94795.28;5004814;28;20467;-57
2021/10/31 04:02:42;;;;;;;;;;;;;;;10.12;55.45;94785.44;5004040;28;19929;-56
2021/10/31 04:05:08;;;;;;;;;;;;;;;10.51;54.45;94781.38;5005154;28;19932;-58
2021/10/31 04:07:33;;;;;;;;;;;;;;;9.06;58.67;94792.16;5003744;28;19979;-59
2021/10/31 04:09:58;;;;;;;;;;;;;;;9.31;58.01;94785.63;5004195;28;20383;-57
2021/10/31 04:12:24;;;;;;;;;;;;;;;9.46;57.38;94777.59;5004217;28;19991;-58
2021/10/31 04:14:49;;;;;;;;;;;;;;;9.54;56.87;94782.78;5004194;28;20449;-58
2021/10/31 04:17:14;;;;;;;;;;;;;;;9.32;57.32;94782.00;5003961;28;19917;-57
2021/10/31 04:19:39;;;;;;;;;;;;;;;9.58;56.60;94788.53;5003283;28;19949;-58
2021/10/31 04:22:05;;;;;;;;;;;;;;;9.65;55.53;94781.44;5003917;28;20342;-58
2021/10/31 04:24:30;;;;;;;;;;;;;;;9.93;54.89;94779.78;5003746;28;20375;-57
2021/10/31 04:26:59;;;;;;;;;;;;;;;9.66;55.88;94780.41;5003938;28;19918;-57
2021/10/31 04:29:24;;;;;;;;;;;;;;;9.84;55.09;94771.97;5002391;28;19921;-56
2021/10/31 04:31:50;;;;;;;;;;;;;;;9.61;55.95;94772.19;5003845;28;20005;-58
2021/10/31 04:34:15;;;;;;;;;;;;;;;9.82;55.14;94768.66;5003389;28;20374;-57
2021/10/31 04:36:40;;;;;;;;;;;;;;;9.62;55.98;94779.16;5004313;28;19921;-57
2021/10/31 04:39:06;;;;;;;;;;;;;;;8.53;60.35;94782.56;5004073;28;19917;-57
2021/10/31 04:41:31;;;;;;;;;;;;;;;9.57;56.29;94771.78;5003146;28;19924;-56
2021/10/31 04:43:57;;;;;;;;;;;;;;;9.79;54.91;94766.41;5003559;28;19929;-56
2021/10/31 04:46:22;;;;;;;;;;;;;;;10.07;54.58;94773.56;5004790;28;19918;-57
2021/10/31 04:48:47;;;;;;;;;;;;;;;9.91;55.11;94776.50;5003582;28;19917;-57
2021/10/31 04:51:12;;;;;;;;;;;;;;;9.96;55.29;94771.41;5004366;28;19925;-57
2021/10/31 04:53:38;;;;;;;;;;;;;;;10.20;54.52;94775.47;5004419;28;20363;-57
2021/10/31 04:56:03;;;;;;;;;;;;;;;9.94;55.42;94776.13;5004422;28;19992;-57
2021/10/31 04:58:29;;;;;;;;;;;;;;;9.35;56.59;94772.81;5003839;28;20464;-57
2021/10/31 05:00:54;;;;;;;;;;;;;;;9.25;57.73;94768.63;4999817;28;19918;-56
2021/10/31 05:03:19;;;;;;;;;;;;;;;9.70;56.28;94779.00;5004062;28;19969;-58
2021/10/31 05:05:44;;;;;;;;;;;;;;;9.83;55.66;94780.13;5002993;28;19925;-59
2021/10/31 05:08:10;;;;;;;;;;;;;;;10.20;54.52;94766.69;4992368;28;20229;-57
2021/10/31 05:10:35;;;;;;;;;;;;;;;10.34;54.17;94771.03;5003546;28;19936;-57
2021/10/31 05:13:00;;;;;;;;;;;;;;;9.59;55.51;94772.38;5003526;28;19913;-58
2021/10/31 05:15:25;;;;;;;;;;;;;;;9.57;56.37;94766.47;5003066;28;19918;-58
2021/10/31 05:17:51;;;;;;;;;;;;;;;9.98;55.12;94756.09;5001371;28;19921;-58
2021/10/31 05:20:17;;;;;;;;;;;;;;;9.31;56.72;94765.22;5001858;28;20416;-58
2021/10/31 05:22:42;;;;;;;;;;;;;;;9.89;55.64;94760.72;5003075;28;19924;-57
2021/10/31 05:25:07;;;;;;;;;;;;;;;9.87;55.26;94757.47;5003322;28;19917;-58
2021/10/31 05:27:33;;;;;;;;;;;;;;;9.72;56.12;94761.03;5002937;28;19922;-57
2021/10/31 05:29:58;;;;;;;;;;;;;;;9.75;55.85;94759.81;5003009;28;19925;-58
2021/10/31 05:32:25;;;;;;;;;;;;;;;10.08;55.11;94758.44;5003491;28;19913;-56
2021/10/31 05:34:50;;;;;;;;;;;;;;;10.12;54.92;94761.50;5003131;28;19917;-57
2021/10/31 05:37:15;;;;;;;;;;;;;;;10.03;55.50;94752.84;5002926;28;20440;-58
2021/10/31 05:39:41;;;;;;;;;;;;;;;9.26;58.14;94756.19;5002771;28;19929;-58
2021/10/31 05:42:06;;;;;;;;;;;;;;;9.88;56.06;94748.47;5002755;28;19917;-57
2021/10/31 05:44:31;;;;;;;;;;;;;;;9.42;57.32;94745.28;5002670;28;20417;-57
2021/10/31 05:46:57;;;;;;;;;;;;;;;9.95;56.00;94749.34;5002301;28;19921;-59
2021/10/31 05:49:22;;;;;;;;;;;;;;;9.36;56.86;94750.53;5002819;28;20000;-58
2021/10/31 05:51:47;;;;;;;;;;;;;;;9.28;57.60;94746.19;4997161;28;20083;-57
2021/10/31 05:54:12;;;;;;;;;;;;;;;10.05;55.29;94741.03;5002696;28;20067;-58
2021/10/31 05:56:38;;;;;;;;;;;;;;;10.26;54.56;94741.16;5003205;28;19917;-57
2021/10/31 05:59:03;;;;;;;;;;;;;;;8.95;59.00;94752.84;5002697;28;19973;-57
2021/10/31 06:01:28;;;;;;;;;;;;;;;8.89;58.83;94750.91;5003614;28;20314;-58
2021/10/31 06:03:55;;;;;;;;;;;;;;;10.00;54.80;94743.44;5006903;28;20358;-57
2021/10/31 06:06:22;;;;;;;;;;;;;;;9.94;54.90;94741.56;5001711;28;19921;-57
2021/10/31 06:08:48;;;;;;;;;;;;;;;9.08;58.07;94752.16;4999939;28;20016;-58
2021/10/31 06:11:13;;;;;;;;;;;;;;;9.98;54.58;94748.94;5006259;28;20013;-56
2021/10/31 06:13:38;;;;;;;;;;;;;;;9.37;56.99;94755.66;5006735;28;19914;-58
2021/10/31 06:16:05;;;;;;;;;;;;;;;9.98;55.17;94740.97;5006791;28;19971;-58
2021/10/31 06:18:31;;;;;;;;;;;;;;;9.43;56.74;94752.25;5006627;28;19965;-57
2021/10/31 06:20:56;;;;;;;;;;;;;;;10.10;54.99;94743.13;5006557;28;20334;-57
2021/10/31 06:23:21;;;;;;;;;;;;;;;10.25;54.65;94737.66;5005846;28;19921;-56
2021/10/31 06:25:46;;;;;;;;;;;;;;;10.55;53.90;94732.06;5006020;28;19921;-57
2021/10/31 06:28:12;;;;;;;;;;;;;;;9.32;57.58;94742.94;5005782;28;19924;-57
2021/10/31 06:30:37;;;;;;;;;;;;;;;10.13;54.93;94733.91;5002733;28;19925;-57
2021/10/31 06:33:02;;;;;;;;;;;;;;;10.09;55.18;94739.63;5006145;28;19933;-58
2021/10/31 06:35:27;;;;;;;;;;;;;;;10.77;53.06;94731.91;5005509;28;19921;-57
2021/10/31 06:37:53;;;;;;;;;;;;;;;10.96;52.38;94730.31;5005261;28;19918;-58
2021/10/31 06:40:18;;;;;;;;;;;;;;;10.79;52.87;94729.88;4992208;28;20516;-58
2021/10/31 06:42:43;;;;;;;;;;;;;;;10.13;54.36;94740.03;5001440;28;19933;-58
2021/10/31 06:45:09;;;;;;;;;;;;;;;10.13;54.96;94734.72;5002566;28;19983;-56
2021/10/31 06:47:34;;;;;;;;;;;;;;;10.18;55.11;94734.13;5000359;28;20350;-58
2021/10/31 06:50:00;;;;;;;;;;;;;;;10.12;55.13;94741.06;5000068;28;20402;-58
2021/10/31 06:52:25;;;;;;;;;;;;;;;8.90;57.78;94752.53;4998258;28;20083;-57
2021/10/31 06:54:51;;;;;;;;;;;;;;;8.66;60.21;94750.06;4998189;28;19972;-57
2021/10/31 06:57:16;;;;;;;;;;;;;;;9.24;58.47;94745.75;4997383;28;20387;-58
2021/10/31 06:59:41;;;;;;;;;;;;;;;10.18;54.83;94737.63;5001620;28;19921;-56
2021/10/31 07:02:07;;;;;;;;;;;;;;;10.12;55.15;94729.59;5002145;28;20294;-57
2021/10/31 07:04:32;;;;;;;;;;;;;;;10.58;53.75;94723.66;5002466;28;19921;-57
2021/10/31 07:06:57;;;;;;;;;;;;;;;10.75;52.97;94720.63;4992046;28;19925;-58
2021/10/31 07:09:23;;;;;;;;;;;;;;;10.93;52.82;94712.06;4999280;28;20485;-57
2021/10/31 07:11:48;;;;;;;;;;;;;;;10.92;52.81;94718.44;5001630;28;19928;-58
2021/10/31 07:14:13;;;;;;;;;;;;;;;10.83;51.09;94720.44;5001634;28;20191;-57
2021/10/31 07:16:39;;;;;;;;;;;;;;;10.93;51.92;94713.91;5001868;28;19921;-56
2021/10/31 07:19:04;;;;;;;;;;;;;;;11.09;52.26;94718.88;5001303;28;19980;-56
2021/10/31 07:21:29;;;;;;;;;;;;;;;11.29;51.64;94711.94;5001283;28;19925;-58
2021/10/31 07:23:55;;;;;;;;;;;;;;;11.10;50.12;94706.38;5001156;28;19913;-58
2021/10/31 07:26:20;;;;;;;;;;;;;;;11.43;51.68;94712.75;5001201;28;20395;-58
2021/10/31 07:28:45;;;;;;;;;;;;;;;11.52;50.22;94700.84;5000905;28;19936;-58
2021/10/31 07:31:11;;;;;;;;;;;;;;;11.11;52.09;94703.50;5000399;28;20229;-58
2021/10/31 07:33:37;;;;;;;;;;;;;;;10.59;53.30;94713.81;4989121;28;20276;-58
2021/10/31 07:36:02;;;;;;;;;;;;;;;10.86;52.61;94712.06;5001403;28;19921;-58
2021/10/31 07:38:28;;;;;;;;;;;;;;;11.09;52.44;94704.75;5002970;28;20426;-56
2021/10/31 07:40:53;;;;;;;;;;;;;;;11.46;51.59;94697.16;5003363;28;20263;-56
2021/10/31 07:43:18;;;;;;;;;;;;;;;11.61;51.12;94688.94;5002880;28;20401;-57
2021/10/31 07:45:43;;;;;;;;;;;;;;;11.65;50.26;94692.00;5002443;28;19922;-57
2021/10/31 07:48:09;;;;;;;;;;;;;;;11.55;49.55;94679.09;5005223;28;20019;-58
2021/10/31 07:50:34;;;;;;;;;;;;;;;11.54;50.22;94673.97;5001341;28;19921;-57
2021/10/31 07:53:03;;;;;;;;;;;;;;;11.51;51.09;94693.88;4993030;28;19930;-57
2021/10/31 07:55:33;;;;;;;;;;;;;;;11.84;50.24;94690.34;4999061;28;19921;-57
2021/10/31 07:57:59;;;;;;;;;;;;;;;11.72;50.49;94684.81;4993757;28;20312;-58
2021/10/31 08:00:24;;;;;;;;;;;;;;;12.14;49.57;94676.53;4986065;28;19921;-58
2021/10/31 08:02:50;;;;;;;;;;;;;;;11.93;50.06;94674.91;4987317;28;19929;-57
2021/10/31 08:05:15;;;;;;;;;;;;;;;12.06;49.91;94673.22;4990572;28;19925;-57
2021/10/31 08:07:41;;;;;;;;;;;;;;;11.88;49.70;94678.22;4995802;28;20350;-58
2021/10/31 08:10:07;;;;;;;;;;;;;;;11.91;49.96;94674.31;4990276;28;20418;-57
2021/10/31 08:12:33;;;;;;;;;;;;;;;11.89;49.77;94674.53;4995031;28;19932;-57
2021/10/31 08:14:59;;;;;;;;;;;;;;;11.51;50.78;94673.38;4986056;28;19922;-56
2021/10/31 08:17:24;;;;;;;;;;;;;;;11.58;50.93;94672.53;4988428;28;20073;-58
2021/10/31 08:19:49;;;;;;;;;;;;;;;11.55;50.78;94671.09;4998710;28;20379;-57
2021/10/31 08:22:14;;;;;;;;;;;;;;;11.18;51.57;94671.53;4988623;28;19925;-56
2021/10/31 08:24:40;;;;;;;;;;;;;;;11.34;51.85;94662.31;4985563;28;19957;-57
2021/10/31 08:27:05;;;;;;;;;;;;;;;11.56;50.02;94664.75;4982389;28;20418;-57
2021/10/31 08:29:31;;;;;;;;;;;;;;;11.61;50.81;94651.63;4987761;28;19933;-58
2021/10/31 08:31:56;;;;;;;;;;;;;;;11.90;50.67;94649.50;4987402;28;19940;-59
2021/10/31 08:34:21;;;;;;;;;;;;;;;11.69;50.38;94641.78;4988654;28;19922;-58
2021/10/31 08:36:47;;;;;;;;;;;;;;;11.91;49.99;94647.66;4987487;28;20477;-58
2021/10/31 08:39:12;;;;;;;;;;;;;;;11.74;49.38;94639.28;4988669;28;19968;-58
2021/10/31 08:41:37;;;;;;;;;;;;;;;11.97;49.98;94632.66;4984923;28;19918;-58
2021/10/31 08:44:03;;;;;;;;;;;;;;;12.17;49.65;94642.47;4987974;28;19922;-57
2021/10/31 08:46:28;;;;;;;;;;;;;;;11.71;50.76;94637.88;4993017;28;20305;-58
2021/10/31 08:48:54;;;;;;;;;;;;;;;11.99;50.12;94627.91;4993227;28;19971;-57
2021/10/31 08:51:24;;;;;;;;;;;;;;;11.94;50.16;94617.91;4988415;28;19922;-59
2021/10/31 08:53:49;;;;;;;;;;;;;;;11.25;52.21;94613.75;4989955;28;20353;-70
2021/10/31 08:56:14;;;;;;;;;;;;;;;11.78;50.56;94603.19;4990475;28;19913;-63
2021/10/31 08:58:43;;;;;;;;;;;;;;;11.51;51.29;94619.25;4986434;28;19918;-66
2021/10/31 09:01:09;;;;;;;;;;;;;;;11.03;50.40;94620.28;4984472;28;20287;-63
2021/10/31 09:03:34;;;;;;;;;;;;;;;11.15;51.49;94613.34;4990669;28;19925;-64
2021/10/31 09:06:00;;;;;;;;;;;;;;;11.75;51.42;94620.41;5000328;28;19930;-62
2021/10/31 09:08:25;;;;;;;;;;;;;;;11.69;51.14;94599.91;4992735;28;19922;-63
2021/10/31 09:10:52;;;;;;;;;;;;;;;11.79;50.19;94604.81;5001231;28;19925;-63
2021/10/31 09:13:18;;;;;;;;;;;;;;;11.77;51.40;94596.22;5001719;28;19929;-63
2021/10/31 09:15:43;;;;;;;;;;;;;;;12.18;50.51;94598.72;5002129;28;20406;-64
2021/10/31 09:18:08;;;;;;;;;;;;;;;12.13;50.03;94592.19;5001773;28;20294;-70
2021/10/31 09:20:34;;;;;;;;;;;;;;;12.38;50.39;94598.63;5001481;28;20406;-69
2021/10/31 09:23:00;;;;;;;;;;;;;;;12.51;49.30;94597.72;5000561;28;19940;-70
2021/10/31 09:25:26;;;;;;;;;;;;;;;12.75;49.38;94603.31;5002970;28;19984;-70
2021/10/31 09:27:53;;;;;;;;;;;;;;;12.21;48.73;94592.97;5002295;28;19975;-71
2021/10/31 09:30:18;;;;;;;;;;;;;;;12.62;49.79;94605.03;5002269;28;20048;-70
2021/10/31 09:32:47;;;;;;;;;;;;;;;11.60;51.80;94611.84;5002306;28;20406;-70
2021/10/31 09:35:13;;;;;;;;;;;;;;;11.93;51.56;94599.44;4985303;28;19925;-70
2021/10/31 09:37:38;;;;;;;;;;;;;;;12.25;48.99;94600.34;5004848;28;20285;-71
2021/10/31 09:40:04;;;;;;;;;;;;;;;12.41;49.10;94591.00;5006694;28;20060;-71
2021/10/31 09:42:32;;;;;;;;;;;;;;;12.22;49.19;94597.28;5006087;28;20443;-71
2021/10/31 09:44:57;;;;;;;;;;;;;;;12.52;50.51;94588.69;5005037;28;19921;-71
2021/10/31 09:47:23;;;;;;;;;;;;;;;12.64;48.90;94578.13;5006026;28;19918;-71
2021/10/31 09:49:49;;;;;;;;;;;;;;;12.62;49.82;94575.66;5006064;28;19944;-70
2021/10/31 09:52:14;;;;;;;;;;;;;;;12.46;50.40;94584.19;5006489;28;19921;-71
2021/10/31 09:54:39;;;;;;;;;;;;;;;12.77;49.80;94588.72;5004269;28;19992;-70
2021/10/31 09:57:05;;;;;;;;;;;;;;;13.03;48.94;94573.50;5005514;28;20122;-70
2021/10/31 09:59:30;;;;;;;;;;;;;;;12.73;49.08;94597.38;5006005;28;19921;-71
2021/10/31 10:02:12;;;;;;;;;;;;;;;12.96;49.75;94582.59;5005877;28;20374;-71
2021/10/31 10:04:48;;;;;;;;;;;;;;;12.76;49.68;94586.25;5004998;28;20344;-70
2021/10/31 10:07:14;;;;;;;;;;;;;;;12.67;49.91;94581.19;5000887;28;19933;-71
2021/10/31 10:09:48;;;;;;;;;;;;;;;13.07;49.58;94567.72;5004605;28;19959;-71
2021/10/31 10:12:13;;;;;;;;;;;;;;;12.97;49.37;94557.53;5004540;28;19953;-71
2021/10/31 10:14:39;;;;;;;;;;;;;;;12.62;50.75;94556.16;4987802;28;19957;-71
2021/10/31 10:17:05;;;;;;;;;;;;;;;12.57;50.49;94569.34;5004297;28;19921;-71
2021/10/31 10:19:34;;;;;;;;;;;;;;;12.84;47.94;94550.44;5004185;28;20139;-70
2021/10/31 10:21:59;;;;;;;;;;;;;;;13.23;49.48;94536.97;5004997;28;19936;-71
2021/10/31 10:24:24;;;;;;;;;;;;;;;13.52;49.01;94529.25;5005044;28;19921;-71
2021/10/31 10:26:50;;;;;;;;;;;;;;;13.59;48.58;94531.88;5003574;28;19933;-72
2021/10/31 10:29:15;;;;;;;;;;;;;;;13.57;48.89;94524.06;5005273;28;19975;-71
2021/10/31 10:31:42;;;;;;;;;;;;;;;13.26;49.53;94521.28;5005084;28;20310;-71
2021/10/31 10:34:07;;;;;;;;;;;;;;;13.49;46.41;94498.44;5003442;28;20291;-70
2021/10/31 10:36:37;;;;;;;;;;;;;;;13.44;48.99;94496.41;5003721;28;19917;-71
2021/10/31 10:39:07;;;;;;;;;;;;;;;13.35;47.38;94494.25;5004021;28;20084;-70
2021/10/31 10:41:35;;;;;;;;;;;;;;;13.78;45.70;94484.50;4987235;28;20379;-70
2021/10/31 10:44:14;;;;;;;;;;;;;;;13.62;48.95;94497.44;5003635;28;19917;-71
2021/10/31 10:46:39;;;;;;;;;;;;;;;14.68;47.01;94503.38;5002629;28;20009;-71
2021/10/31 10:49:05;;;;;;;;;;;;;;;15.01;46.44;94500.38;5004733;28;20549;-72
2021/10/31 10:51:30;;;;;;;;;;;;;;;14.29;47.52;94505.66;5004804;28;19929;-71
2021/10/31 10:54:08;;;;;;;;;;;;;;;14.76;42.20;94514.84;5004400;28;19929;-71
2021/10/31 10:56:33;;;;;;;;;;;;;;;14.93;46.11;94525.69;5004732;28;20424;-71
2021/10/31 10:59:00;;;;;;;;;;;;;;;15.23;43.83;94511.34;5004852;28;19922;-72
2021/10/31 11:01:26;;;;;;;;;;;;;;;15.27;45.10;94506.31;4987469;28;19979;-71
2021/10/31 11:03:51;;;;;;;;;;;;;;;15.41;45.07;94494.31;5003741;28;20414;-72
2021/10/31 11:06:17;;;;;;;;;;;;;;;15.87;44.03;94499.78;5002857;28;19932;-72
2021/10/31 11:08:42;;;;;;;;;;;;;;;16.12;43.58;94493.25;5005078;28;20136;-70
2021/10/31 11:11:12;;;;;;;;;;;;;;;16.60;42.29;94478.78;5002624;28;19941;-71
2021/10/31 11:13:52;;;;;;;;;;;;;;;16.68;42.03;94477.53;5003557;28;19918;-71
2021/10/31 11:16:17;;;;;;;;;;;;;;;16.70;42.31;94462.81;5004503;28;19944;-72
2021/10/31 11:18:44;;;;;;;;;;;;;;;16.49;42.52;94467.84;4986236;28;19921;-71
2021/10/31 11:21:09;;;;;;;;;;;;;;;16.36;42.62;94463.63;5003405;28;20298;-71
2021/10/31 11:23:35;;;;;;;;;;;;;;;15.98;42.75;94460.53;5002673;28;20005;-71
2021/10/31 11:26:00;;;;;;;;;;;;;;;16.29;42.78;94454.06;5002730;28;20286;-71
2021/10/31 11:28:26;;;;;;;;;;;;;;;15.89;43.80;94456.63;5003853;28;20462;-71
2021/10/31 11:30:51;;;;;;;;;;;;;;;16.50;42.17;94458.75;4986267;28;19921;-71
2021/10/31 11:33:16;;;;;;;;;;;;;;;16.38;42.07;94452.63;5002808;28;20338;-72
2021/10/31 11:35:42;;;;;;;;;;;;;;;16.12;39.14;94449.50;4985948;28;19917;-70
2021/10/31 11:38:07;;;;;;;;;;;;;;;15.68;42.98;94437.47;5002277;28;19924;-70
2021/10/31 11:40:34;;;;;;;;;;;;;;;15.88;43.30;94434.31;5004068;28;19918;-71
2021/10/31 11:42:59;;;;;;;;;;;;;;;15.79;43.11;94432.28;5003645;28;19973;-71
2021/10/31 11:45:26;;;;;;;;;;;;;;;16.33;42.72;94431.03;5002692;28;19921;-71
2021/10/31 11:48:08;;;;;;;;;;;;;;;16.49;41.47;94435.63;5002176;28;20678;-70
2021/10/31 11:50:34;;;;;;;;;;;;;;;16.56;41.35;94432.78;5002302;28;20004;-71
2021/10/31 11:52:59;;;;;;;;;;;;;;;16.51;41.95;94438.91;5002292;28;19925;-71
2021/10/31 11:55:25;;;;;;;;;;;;;;;16.59;41.69;94426.91;5002233;28;19933;-72
2021/10/31 11:57:54;;;;;;;;;;;;;;;16.16;42.67;94445.28;5003381;28;20016;-72
2021/10/31 12:00:25;;;;;;;;;;;;;;;16.34;42.46;94440.72;5000982;28;19913;-70
2021/10/31 12:02:51;;;;;;;;;;;;;;;16.24;42.70;94423.41;5003222;28;19924;-71
2021/10/31 12:05:37;;;;;;;;;;;;;;;15.82;41.34;94418.38;5002614;28;19925;-70
2021/10/31 12:08:06;;;;;;;;;;;;;;;15.77;43.47;94426.34;5001982;28;20367;-72
2021/10/31 12:10:43;;;;;;;;;;;;;;;15.69;41.38;94411.44;5002312;28;20413;-71
2021/10/31 12:13:13;;;;;;;;;;;;;;;15.29;43.93;94415.72;4991073;28;19999;-69
2021/10/31 12:15:38;;;;;;;;;;;;;;;15.33;44.46;94407.00;5002097;28;20175;-71
2021/10/31 12:18:08;;;;;;;;;;;;;;;15.78;43.55;94396.59;5002205;28;20438;-71
2021/10/31 12:20:47;;;;;;;;;;;;;;;15.83;42.71;94402.03;5080430;27;19942;-73
2021/10/31 12:23:19;;;;;;;;;;;;;;;15.31;42.24;94406.44;5042677;27;20560;-72
2021/10/31 12:25:44;;;;;;;;;;;;;;;15.42;43.89;94398.56;5001912;28;19922;-72
2021/10/31 12:28:27;;;;;;;;;;;;;;;15.16;44.08;94395.41;5005827;28;20306;-73
2021/10/31 12:30:52;;;;;;;;;;;;;;;15.05;44.08;94387.13;4998319;28;19925;-73
2021/10/31 12:33:18;;;;;;;;;;;;;;;15.20;44.25;94391.97;4998836;28;19918;-73
2021/10/31 12:35:43;;;;;;;;;;;;;;;15.53;43.76;94386.19;5006794;28;20433;-72
2021/10/31 12:38:12;;;;;;;;;;;;;;;15.17;44.11;94380.94;5018116;28;20401;-72
2021/10/31 12:40:37;;;;;;;;;;;;;;;15.40;43.79;94373.88;5019914;28;19921;-73
2021/10/31 12:43:06;;;;;;;;;;;;;;;15.61;43.77;94370.53;5019262;28;19930;-73
2021/10/31 12:45:33;;;;;;;;;;;;;;;15.28;44.25;94360.50;5002602;28;19920;-73
2021/10/31 12:48:01;;;;;;;;;;;;;;;15.77;40.91;94361.94;5018819;28;20119;-73